createdAt,value
2023-04-26T00:02:27.443Z,9.78
2023-04-26T00:05:02.255Z,9.75
2023-04-26T00:07:37.973Z,9.74
2023-04-26T00:10:12.176Z,9.71
2023-04-26T00:12:45.160Z,9.64
2023-04-26T00:15:17.997Z,9.53
2023-04-26T00:17:52.191Z,9.43
2023-04-26T00:20:25.098Z,9.33
2023-04-26T00:22:58.219Z,9.22
2023-04-26T00:25:31.210Z,9.13
2023-04-26T00:28:04.052Z,9.04
2023-04-26T00:30:37.703Z,8.95
2023-04-26T00:33:11.863Z,8.85
2023-04-26T00:35:44.641Z,8.80
2023-04-26T00:38:17.416Z,8.79
2023-04-26T00:40:50.729Z,8.75
2023-04-26T00:43:23.544Z,8.70
2023-04-26T00:45:56.481Z,8.66
2023-04-26T00:48:31.510Z,8.58
2023-04-26T00:51:05.594Z,8.50
2023-04-26T00:53:38.517Z,8.40
2023-04-26T00:56:12.714Z,8.33
2023-04-26T00:58:46.362Z,8.24
2023-04-26T01:01:19.727Z,8.13
2023-04-26T01:03:54.165Z,8.13
2023-04-26T01:06:29.507Z,7.92
2023-04-26T01:09:05.116Z,7.85
2023-04-26T01:11:38.778Z,7.78
2023-04-26T01:14:12.928Z,7.70
2023-04-26T01:16:47.631Z,7.66
2023-04-26T01:19:22.192Z,7.59
2023-04-26T01:21:55.003Z,7.53
2023-04-26T01:24:29.391Z,7.48
2023-04-26T01:27:04.143Z,7.41
2023-04-26T01:29:37.183Z,7.35
2023-04-26T01:32:10.941Z,7.30
2023-04-26T01:34:43.766Z,7.24
2023-04-26T01:37:17.082Z,7.18
2023-04-26T01:39:51.520Z,7.11
2023-04-26T01:42:26.032Z,7.07
2023-04-26T01:44:58.897Z,7.02
2023-04-26T01:47:31.732Z,6.96
2023-04-26T01:50:04.858Z,6.88
2023-04-26T01:52:37.661Z,6.81
2023-04-26T01:55:11.964Z,6.77
2023-04-26T01:57:46.686Z,6.68
2023-04-26T02:00:20.610Z,6.61
2023-04-26T02:02:55.898Z,6.52
2023-04-26T02:05:29.462Z,6.42
2023-04-26T02:08:02.580Z,6.36
2023-04-26T02:10:37.021Z,6.33
2023-04-26T02:13:09.935Z,6.27
2023-04-26T02:15:42.802Z,6.18
2023-04-26T02:18:15.817Z,6.09
2023-04-26T02:20:48.790Z,6.02
2023-04-26T02:23:21.603Z,5.95
2023-04-26T02:25:56.111Z,5.90
2023-04-26T02:28:29.155Z,5.87
2023-04-26T02:31:03.562Z,5.81
2023-04-26T02:33:36.937Z,5.76
2023-04-26T02:36:10.113Z,5.72
2023-04-26T02:38:42.918Z,5.66
2023-04-26T02:41:17.134Z,5.60
2023-04-26T02:43:49.959Z,5.57
2023-04-26T02:46:22.936Z,5.52
2023-04-26T02:48:55.836Z,5.49
2023-04-26T02:51:29.096Z,5.41
2023-04-26T02:54:03.789Z,5.38
2023-04-26T02:56:39.558Z,5.32
2023-04-26T02:59:12.394Z,5.28
2023-04-26T03:01:45.300Z,5.25
2023-04-26T03:04:18.415Z,5.20
2023-04-26T03:06:51.731Z,5.17
2023-04-26T03:09:24.752Z,5.13
2023-04-26T03:11:59.617Z,5.08
2023-04-26T03:14:33.542Z,5.07
2023-04-26T03:17:06.564Z,5.04
2023-04-26T03:19:39.955Z,5.00
2023-04-26T03:22:16.131Z,4.98
2023-04-26T03:24:49.161Z,4.94
2023-04-26T03:27:23.810Z,4.89
2023-04-26T03:29:56.938Z,4.87
2023-04-26T03:32:29.919Z,4.87
2023-04-26T03:35:02.825Z,4.84
2023-04-26T03:37:35.782Z,4.84
2023-04-26T03:40:12.753Z,4.82
2023-04-26T03:42:46.879Z,4.89
2023-04-26T03:45:21.257Z,4.73
2023-04-26T03:47:54.197Z,4.69
2023-04-26T03:50:27.393Z,4.66
2023-04-26T03:53:00.297Z,4.66
2023-04-26T03:55:33.149Z,4.65
2023-04-26T03:58:08.201Z,4.64
2023-04-26T04:00:42.317Z,4.63
2023-04-26T04:03:15.075Z,4.73
2023-04-26T04:05:48.002Z,4.65
2023-04-26T04:08:20.827Z,4.64
2023-04-26T04:10:53.654Z,4.65
2023-04-26T04:13:27.857Z,4.67
2023-04-26T04:16:01.482Z,4.70
2023-04-26T04:18:34.435Z,4.78
2023-04-26T04:21:07.364Z,4.84
2023-04-26T04:23:40.349Z,4.90
2023-04-26T04:26:16.262Z,4.96
2023-04-26T04:28:52.085Z,5.03
2023-04-26T04:31:26.058Z,5.09
2023-04-26T04:33:59.185Z,5.15
2023-04-26T04:36:32.418Z,5.23
2023-04-26T04:39:06.004Z,5.34
2023-04-26T04:41:40.142Z,5.40
2023-04-26T04:44:15.688Z,5.52
2023-04-26T04:46:49.510Z,5.58
2023-04-26T04:49:22.509Z,5.65
2023-04-26T04:51:55.584Z,5.73
2023-04-26T04:54:28.431Z,5.81
2023-04-26T04:57:01.880Z,5.87
2023-04-26T04:59:36.470Z,5.95
2023-04-26T05:02:10.432Z,6.04
2023-04-26T05:04:43.657Z,6.11
2023-04-26T05:07:18.499Z,6.22
2023-04-26T05:09:51.527Z,6.31
2023-04-26T05:12:24.691Z,6.41
2023-04-26T05:14:59.057Z,6.49
2023-04-26T05:17:32.831Z,6.61
2023-04-26T05:20:11.277Z,6.74
2023-04-26T05:22:44.498Z,6.87
2023-04-26T05:25:19.266Z,7.01
2023-04-26T05:27:56.057Z,7.12
2023-04-26T05:31:02.848Z,7.25
2023-04-26T05:33:54.142Z,7.38
2023-04-26T05:36:35.699Z,7.46
2023-04-26T05:39:08.908Z,7.52
2023-04-26T05:41:42.429Z,7.63
2023-04-26T05:44:15.881Z,7.73
2023-04-26T05:46:50.669Z,7.85
2023-04-26T05:49:23.499Z,7.97
2023-04-26T05:51:56.828Z,8.06
2023-04-26T05:54:29.753Z,8.17
2023-04-26T05:57:03.456Z,8.31
2023-04-26T05:59:37.453Z,8.42
2023-04-26T06:02:12.623Z,8.47
2023-04-26T06:04:46.395Z,8.48
2023-04-26T06:07:22.281Z,8.57
2023-04-26T06:09:55.153Z,8.66
2023-04-26T06:12:31.537Z,8.82
2023-04-26T06:15:05.522Z,9.02
2023-04-26T06:17:41.653Z,9.14
2023-04-26T06:20:15.477Z,9.27
2023-04-26T06:22:49.167Z,9.59
2023-04-26T06:25:22.249Z,9.66
2023-04-26T06:27:55.145Z,9.84
2023-04-26T06:30:28.084Z,10.05
2023-04-26T06:33:02.597Z,10.23
2023-04-26T06:35:41.404Z,10.42
2023-04-26T06:38:15.455Z,10.57
2023-04-26T06:40:48.384Z,10.67
2023-04-26T06:43:21.531Z,10.83
2023-04-26T06:46:12.789Z,11.06
2023-04-26T06:48:47.223Z,11.19
2023-04-26T06:51:20.024Z,11.23
2023-04-26T06:53:53.629Z,11.40
2023-04-26T06:56:26.447Z,11.57
2023-04-26T06:59:01.427Z,11.46
2023-04-26T07:01:35.284Z,11.40
2023-04-26T07:04:10.789Z,11.54
2023-04-26T07:06:43.902Z,11.62
2023-04-26T07:09:16.847Z,11.57
2023-04-26T07:11:49.757Z,11.49
2023-04-26T07:14:22.733Z,11.42
2023-04-26T07:16:55.535Z,11.35
2023-04-26T07:19:29.707Z,11.30
2023-04-26T07:22:02.648Z,11.25
2023-04-26T07:24:35.513Z,11.41
2023-04-26T07:27:08.350Z,11.44
2023-04-26T07:29:41.177Z,11.49
2023-04-26T07:32:14.268Z,11.47
2023-04-26T07:34:48.459Z,11.54
2023-04-26T07:37:21.376Z,11.67
2023-04-26T07:39:54.250Z,11.76
2023-04-26T07:42:27.117Z,11.80
2023-04-26T07:44:59.927Z,11.95
2023-04-26T07:47:32.808Z,11.94
2023-04-26T07:50:08.623Z,12.03
2023-04-26T07:52:46.824Z,12.21
2023-04-26T07:55:19.876Z,12.42
2023-04-26T07:57:52.776Z,12.38
2023-04-26T08:00:25.803Z,12.09
2023-04-26T08:02:58.773Z,11.82
2023-04-26T08:05:33.404Z,11.77
2023-04-26T08:08:06.731Z,11.80
2023-04-26T08:10:41.735Z,11.78
2023-04-26T08:13:14.572Z,11.59
2023-04-26T08:15:47.627Z,11.73
2023-04-26T08:18:20.473Z,12.15
2023-04-26T08:20:55.327Z,12.88
2023-04-26T08:23:28.360Z,13.60
2023-04-26T08:26:01.470Z,13.76
2023-04-26T08:28:35.785Z,13.44
2023-04-26T08:31:10.164Z,12.95
2023-04-26T08:33:43.283Z,12.50
2023-04-26T08:36:17.458Z,12.10
2023-04-26T08:38:50.466Z,12.26
2023-04-26T08:41:24.901Z,13.57
2023-04-26T08:43:58.766Z,15.01
2023-04-26T08:46:37.620Z,16.20
2023-04-26T08:49:19.897Z,15.55
2023-04-26T08:51:55.710Z,14.39
2023-04-26T08:54:29.647Z,14.05
2023-04-26T08:57:03.195Z,13.49
2023-04-26T08:59:38.061Z,12.83
2023-04-26T09:02:12.449Z,12.26
2023-04-26T09:04:46.892Z,11.85
2023-04-26T09:07:23.316Z,14.00
2023-04-26T09:09:58.839Z,14.42
2023-04-26T09:12:31.881Z,15.87
2023-04-26T09:15:07.209Z,17.55
2023-04-26T09:17:42.089Z,18.65
2023-04-26T09:20:23.343Z,19.52
2023-04-26T09:23:07.320Z,20.14
2023-04-26T09:25:40.313Z,20.33
2023-04-26T09:28:23.537Z,18.75
2023-04-26T09:30:56.419Z,17.37
2023-04-26T09:33:29.264Z,16.32
2023-04-26T09:36:12.977Z,15.04
2023-04-26T09:38:47.148Z,13.93
2023-04-26T09:41:20.025Z,14.95
2023-04-26T09:43:53.824Z,16.73
2023-04-26T09:46:26.778Z,18.21
2023-04-26T09:49:03.716Z,19.40
2023-04-26T09:51:36.707Z,17.86
2023-04-26T09:54:10.942Z,16.25
2023-04-26T09:56:59.892Z,14.92
2023-04-26T09:59:41.038Z,13.79
2023-04-26T10:02:19.338Z,13.58
2023-04-26T10:04:53.971Z,13.71
2023-04-26T10:07:27.222Z,13.50
2023-04-26T10:10:02.138Z,13.23
2023-04-26T10:12:35.689Z,13.11
2023-04-26T10:15:10.215Z,13.70
2023-04-26T10:17:43.187Z,15.97
2023-04-26T10:20:18.814Z,17.95
2023-04-26T10:22:55.045Z,18.68
2023-04-26T10:25:37.577Z,18.00
2023-04-26T10:28:10.774Z,16.88
2023-04-26T10:30:56.442Z,15.50
2023-04-26T10:33:29.363Z,14.70
2023-04-26T10:36:08.095Z,16.12
2023-04-26T10:38:42.989Z,15.71
2023-04-26T10:41:35.202Z,15.36
2023-04-26T10:44:40.143Z,14.88
2023-04-26T10:47:25.099Z,14.99
2023-04-26T10:50:09.296Z,15.13
2023-04-26T10:53:06.891Z,14.45
2023-04-26T10:55:39.998Z,13.70
2023-04-26T10:58:31.162Z,13.15
2023-04-26T11:01:08.344Z,12.81
2023-04-26T11:03:42.515Z,13.03
2023-04-26T11:06:17.469Z,14.99
2023-04-26T11:08:50.535Z,15.53
2023-04-26T11:11:29.810Z,15.67
2023-04-26T11:14:04.641Z,15.56
2023-04-26T11:16:38.405Z,15.38
2023-04-26T11:19:11.349Z,15.03
2023-04-26T11:21:44.222Z,14.69
2023-04-26T11:24:17.213Z,14.39
2023-04-26T11:26:52.898Z,14.22
2023-04-26T11:29:27.433Z,14.22
2023-04-26T11:32:01.430Z,14.17
2023-04-26T11:34:35.233Z,13.94
2023-04-26T11:37:09.090Z,13.64
2023-04-26T11:39:42.034Z,13.49
2023-04-26T11:42:14.916Z,13.26
2023-04-26T11:44:52.576Z,12.83
2023-04-26T11:47:30.686Z,12.45
2023-04-26T11:50:04.378Z,12.30
2023-04-26T11:52:37.193Z,12.34
2023-04-26T11:55:10.953Z,12.18
2023-04-26T11:57:43.648Z,12.18
2023-04-26T12:00:20.145Z,12.02
2023-04-26T12:02:53.764Z,11.90
2023-04-26T12:05:27.602Z,11.82
2023-04-26T12:08:01.514Z,11.64
2023-04-26T12:10:37.096Z,11.60
2023-04-26T12:13:09.961Z,11.80
2023-04-26T12:15:44.173Z,12.11
2023-04-26T12:18:17.383Z,12.38
2023-04-26T12:20:51.766Z,12.78
2023-04-26T12:23:24.604Z,13.13
2023-04-26T12:26:02.015Z,13.32
2023-04-26T12:28:34.995Z,13.41
2023-04-26T12:31:09.581Z,13.26
2023-04-26T12:33:42.587Z,13.00
2023-04-26T12:36:15.557Z,12.67
2023-04-26T12:38:48.411Z,12.35
2023-04-26T12:41:21.715Z,12.12
2023-04-26T12:43:54.616Z,12.07
2023-04-26T12:46:28.824Z,12.22
2023-04-26T12:49:01.722Z,12.26
2023-04-26T12:51:34.846Z,12.24
2023-04-26T12:54:07.808Z,12.05
2023-04-26T12:56:44.036Z,11.82
2023-04-26T12:59:17.407Z,11.65
2023-04-26T13:01:51.732Z,11.56
2023-04-26T13:04:24.898Z,11.59
2023-04-26T13:06:58.360Z,11.78
2023-04-26T13:09:31.224Z,11.90
2023-04-26T13:12:04.264Z,11.87
2023-04-26T13:14:41.160Z,11.85
2023-04-26T13:17:15.812Z,11.89
2023-04-26T13:19:49.152Z,11.85
2023-04-26T13:22:22.426Z,11.81
2023-04-26T13:24:55.305Z,11.84
2023-04-26T13:27:31.131Z,11.82
2023-04-26T13:30:04.970Z,11.85
2023-04-26T13:32:39.310Z,11.93
2023-04-26T13:35:13.088Z,11.99
2023-04-26T13:37:46.414Z,12.23
2023-04-26T13:40:26.483Z,12.37
2023-04-26T13:42:59.487Z,12.53
2023-04-26T13:45:35.859Z,12.73
2023-04-26T13:48:10.197Z,12.89
2023-04-26T13:50:43.103Z,13.00
2023-04-26T13:53:16.296Z,13.02
2023-04-26T13:55:49.183Z,12.97
2023-04-26T13:58:22.096Z,12.92
2023-04-26T14:00:54.923Z,12.87
2023-04-26T14:03:29.450Z,12.81
2023-04-26T14:06:02.902Z,12.71
2023-04-26T14:08:35.782Z,12.69
2023-04-26T14:11:09.245Z,12.66
2023-04-26T14:13:42.584Z,12.59
2023-04-26T14:16:15.591Z,12.41
2023-04-26T14:18:49.920Z,12.21
2023-04-26T14:21:22.864Z,12.13
2023-04-26T14:23:56.455Z,12.10
2023-04-26T14:26:29.309Z,12.05
2023-04-26T14:29:02.510Z,11.99
2023-04-26T14:31:35.625Z,11.84
2023-04-26T14:34:09.982Z,11.77
2023-04-26T14:36:42.980Z,11.72
2023-04-26T14:39:16.170Z,11.68
2023-04-26T14:41:49.289Z,11.69
2023-04-26T14:44:24.133Z,11.69
2023-04-26T14:46:57.117Z,11.70
2023-04-26T14:49:33.919Z,11.71
2023-04-26T14:52:06.917Z,11.72
2023-04-26T14:54:39.910Z,11.72
2023-04-26T14:57:12.914Z,11.73
2023-04-26T14:59:45.748Z,11.79
2023-04-26T15:02:18.693Z,11.87
2023-04-26T15:04:53.286Z,11.94
2023-04-26T15:07:31.820Z,12.01
2023-04-26T15:10:07.836Z,12.07
2023-04-26T15:12:40.778Z,12.14
2023-04-26T15:15:14.299Z,12.18
2023-04-26T15:17:49.930Z,12.23
2023-04-26T15:20:24.504Z,12.32
2023-04-26T15:23:01.381Z,12.37
2023-04-26T15:25:38.564Z,12.36
2023-04-26T15:28:11.618Z,12.33
2023-04-26T15:30:44.905Z,12.27
2023-04-26T15:33:18.543Z,12.17
2023-04-26T15:35:53.147Z,12.07
2023-04-26T15:38:26.080Z,12.05
2023-04-26T15:40:59.006Z,12.01
2023-04-26T15:43:31.858Z,11.99
2023-04-26T15:46:04.968Z,11.97
2023-04-26T15:48:37.851Z,11.97
2023-04-26T15:51:12.078Z,11.94
2023-04-26T15:53:44.891Z,11.87
2023-04-26T15:56:18.495Z,11.80
2023-04-26T15:58:51.661Z,11.77
2023-04-26T16:01:24.640Z,11.73
2023-04-26T16:03:57.722Z,11.71
2023-04-26T16:06:32.425Z,11.66
2023-04-26T16:09:17.166Z,11.62
2023-04-26T16:11:57.450Z,11.58
2023-04-26T16:14:31.295Z,11.58
2023-04-26T16:17:05.199Z,11.62
2023-04-26T16:19:38.501Z,11.46
2023-04-26T16:22:12.803Z,11.38
2023-04-26T16:24:45.920Z,11.31
2023-04-26T16:27:22.479Z,11.22
2023-04-26T16:29:55.667Z,11.13
2023-04-26T16:32:30.594Z,11.05
2023-04-26T16:35:04.277Z,10.96
2023-04-26T16:37:42.394Z,10.87
2023-04-26T16:40:15.503Z,10.80
2023-04-26T16:42:48.349Z,10.75
2023-04-26T16:45:21.475Z,10.71
2023-04-26T16:47:54.386Z,10.66
2023-04-26T16:50:27.586Z,10.62
2023-04-26T16:53:02.156Z,10.52
2023-04-26T16:55:35.030Z,10.43
2023-04-26T16:58:09.624Z,10.35
2023-04-26T17:00:44.605Z,10.25
2023-04-26T17:03:18.182Z,10.15
2023-04-26T17:05:51.115Z,10.21
2023-04-26T17:08:27.173Z,10.07
2023-04-26T17:11:00.022Z,10.03
2023-04-26T17:13:33.405Z,9.97
2023-04-26T17:16:07.115Z,9.88
2023-04-26T17:18:39.866Z,9.92
2023-04-26T17:21:12.771Z,9.76
2023-04-26T17:23:46.962Z,9.68
2023-04-26T17:26:19.812Z,9.63
2023-04-26T17:28:52.943Z,9.60
2023-04-26T17:31:25.949Z,9.56
2023-04-26T17:34:02.674Z,9.54
2023-04-26T17:36:37.570Z,9.49
2023-04-26T17:39:12.069Z,9.47
2023-04-26T17:41:45.196Z,9.46
2023-04-26T17:44:18.227Z,9.47
2023-04-26T17:46:51.140Z,9.49
2023-04-26T17:49:25.741Z,9.48
2023-04-26T17:51:58.689Z,9.44
2023-04-26T17:54:32.922Z,9.41
2023-04-26T17:57:07.772Z,9.37
2023-04-26T17:59:40.774Z,9.34
2023-04-26T18:02:13.815Z,9.32
2023-04-26T18:04:47.639Z,9.30
2023-04-26T18:07:22.853Z,9.30
2023-04-26T18:09:57.094Z,9.29
2023-04-26T18:12:30.843Z,9.31
2023-04-26T18:15:03.845Z,9.40
2023-04-26T18:17:37.196Z,9.27
2023-04-26T18:20:11.284Z,9.24
2023-04-26T18:22:44.299Z,9.17
2023-04-26T18:25:18.617Z,9.09
2023-04-26T18:27:51.524Z,9.02
2023-04-26T18:30:24.382Z,8.94
2023-04-26T18:32:57.301Z,8.86
2023-04-26T18:35:30.147Z,8.81
2023-04-26T18:38:04.030Z,8.76
2023-04-26T18:40:38.081Z,8.86
2023-04-26T18:43:11.273Z,8.72
2023-04-26T18:45:44.267Z,8.69
2023-04-26T18:48:17.373Z,8.68
2023-04-26T18:50:51.166Z,8.67
2023-04-26T18:53:24.748Z,8.65
2023-04-26T18:56:01.655Z,8.61
2023-04-26T18:58:34.579Z,8.60
2023-04-26T19:01:07.963Z,8.59
2023-04-26T19:03:41.918Z,8.59
2023-04-26T19:06:19.279Z,8.59
2023-04-26T19:08:52.569Z,8.60
2023-04-26T19:11:26.852Z,8.60
2023-04-26T19:14:02.421Z,8.59
2023-04-26T19:16:35.886Z,8.57
2023-04-26T19:19:08.769Z,8.54
2023-04-26T19:21:41.893Z,8.51
2023-04-26T19:24:14.726Z,8.48
2023-04-26T19:26:48.994Z,8.42
2023-04-26T19:29:21.893Z,8.38
2023-04-26T19:31:59.372Z,8.33
2023-04-26T19:34:36.455Z,8.27
2023-04-26T19:37:09.495Z,8.20
2023-04-26T19:39:42.364Z,8.15
2023-04-26T19:42:16.724Z,8.08
2023-04-26T19:44:49.566Z,8.02
2023-04-26T19:47:22.938Z,7.95
2023-04-26T19:49:57.679Z,7.88
2023-04-26T19:52:30.553Z,7.82
2023-04-26T19:55:03.683Z,7.76
2023-04-26T19:57:37.994Z,7.71
2023-04-26T20:00:12.059Z,7.61
2023-04-26T20:02:46.926Z,7.56
2023-04-26T20:05:19.855Z,7.51
2023-04-26T20:07:52.723Z,7.46
2023-04-26T20:10:25.583Z,7.42
2023-04-26T20:13:00.712Z,7.35
2023-04-26T20:15:34.149Z,7.29
2023-04-26T20:18:07.456Z,7.24
2023-04-26T20:20:40.379Z,7.19
2023-04-26T20:23:13.380Z,7.15
2023-04-26T20:25:49.205Z,7.08
2023-04-26T20:28:24.416Z,7.06
2023-04-26T20:30:59.542Z,7.02
2023-04-26T20:33:32.464Z,6.99
2023-04-26T20:36:05.861Z,6.97
2023-04-26T20:38:41.260Z,6.94
2023-04-26T20:41:14.315Z,6.91
2023-04-26T20:43:48.532Z,6.86
2023-04-26T20:46:21.842Z,6.83
2023-04-26T20:48:55.054Z,6.81
2023-04-26T20:51:33.579Z,6.78
2023-04-26T20:54:06.537Z,6.75
2023-04-26T20:56:39.501Z,6.72
2023-04-26T20:59:13.940Z,6.68
2023-04-26T21:01:46.911Z,6.65
2023-04-26T21:04:20.020Z,6.62
2023-04-26T21:06:53.361Z,6.59
2023-04-26T21:09:26.748Z,6.53
2023-04-26T21:11:59.592Z,6.50
2023-04-26T21:14:33.885Z,6.47
2023-04-26T21:17:06.861Z,6.45
2023-04-26T21:19:39.729Z,6.44
2023-04-26T21:22:12.575Z,6.40
2023-04-26T21:24:45.494Z,6.38
2023-04-26T21:27:18.700Z,6.35
2023-04-26T21:29:52.860Z,6.34
2023-04-26T21:32:25.792Z,6.31
2023-04-26T21:34:58.665Z,6.28
2023-04-26T21:37:31.502Z,6.25
2023-04-26T21:40:05.012Z,6.22
2023-04-26T21:42:37.830Z,6.22
2023-04-26T21:45:13.272Z,6.19
2023-04-26T21:47:46.253Z,6.16
2023-04-26T21:50:19.419Z,6.15
2023-04-26T21:52:52.367Z,6.14
2023-04-26T21:55:25.458Z,6.12
2023-04-26T21:57:58.274Z,6.12
2023-04-26T22:00:32.729Z,6.11
2023-04-26T22:03:05.871Z,6.10
2023-04-26T22:05:38.795Z,6.12
2023-04-26T22:08:11.699Z,6.11
2023-04-26T22:10:44.538Z,6.10
2023-04-26T22:13:17.409Z,6.09
2023-04-26T22:15:51.836Z,6.06
2023-04-26T22:18:25.902Z,6.03
2023-04-26T22:20:58.763Z,6.00
2023-04-26T22:23:32.062Z,5.96
2023-04-26T22:26:04.949Z,5.93
2023-04-26T22:28:37.832Z,5.88
2023-04-26T22:31:12.050Z,5.85
2023-04-26T22:33:45.058Z,5.81
2023-04-26T22:36:18.017Z,5.78
2023-04-26T22:38:51.189Z,5.75
2023-04-26T22:41:24.048Z,5.73
2023-04-26T22:43:56.854Z,5.70
2023-04-26T22:46:31.222Z,5.65
2023-04-26T22:49:04.176Z,5.63
2023-04-26T22:51:36.990Z,5.60
2023-04-26T22:54:09.856Z,5.58
2023-04-26T22:56:42.700Z,5.55
2023-04-26T22:59:15.492Z,5.54
2023-04-26T23:01:49.746Z,5.53
2023-04-26T23:04:22.709Z,5.51
2023-04-26T23:06:55.853Z,5.50
2023-04-26T23:09:28.689Z,5.49
2023-04-26T23:12:02.326Z,5.48
2023-04-26T23:14:35.348Z,5.46
2023-04-26T23:17:12.019Z,5.45
2023-04-26T23:19:44.928Z,5.43
2023-04-26T23:22:17.717Z,5.42
2023-04-26T23:24:50.565Z,5.40
2023-04-26T23:27:24.794Z,5.39
2023-04-26T23:29:59.438Z,5.38
2023-04-26T23:32:33.646Z,5.35
2023-04-26T23:35:07.664Z,5.35
2023-04-26T23:37:40.306Z,5.46
2023-04-26T23:40:14.129Z,5.35
2023-04-26T23:42:46.817Z,5.44
2023-04-26T23:45:20.198Z,5.31
2023-04-26T23:47:54.904Z,5.27
2023-04-26T23:50:36.037Z,5.27
2023-04-26T23:53:09.293Z,5.23
2023-04-26T23:55:43.922Z,5.22
2023-04-26T23:58:19.281Z,5.20
